Huvudsida
METAR-TAF:

METAR-TAF

Flygplatser :

Islamabad, Pakistan

latitud: 33-32-57N, longitud: 072-49-32E, höjd: 537 m

Aktuellt väderrapport

Denna rapport gjordes för 34 minuter sedan, klockan 05:30 UTC
Vind 6 kt från väst
Temperatur 28°C
Fuktighet 30%
Tryck 1010 hPa
Sikt: 6000 m

METAR: OPIS 240530Z 27006KT 6000 NSC 28/09 Q1010 NOSIG

Tid: 11:04 (06:04 UTC)

Väderprognos

Denna rapport gjordes för 7 timmar och 4 minuter sedan, klockan 23:00 UTC
Prognos gäller från 24 kl. 00 UTC till 25 kl. 06 UTC
Vind 10 kt från väst
Sikt: 6000 m
Få moln på en höjd av 4000 ft
Spridda moln på en höjd av 10000 ft
Sannolikhet 30% :
Temporärt
från 24 kl. 08 UTC till 24 kl. 12 UTC
Vind 15 kt från nordväst i byarna ända upp till 35 kt
Sikt: 2000 m
Få moln på en höjd av 3000 ft, Cumulonimbus.
Spridda moln på en höjd av 4000 ft
Brutna moln på en höjd av 10000 ft
åska, regn,

TAF: OPIS 232300Z 2400/2506 27010KT 6000 FEW040 SCT100 PROB30 TEMPO 2408/2412 31015G35KT 2000 TSRA FEW030CB SCT040 BKN100

Aktuella väderrapporter och prognoser från 4000 flygplatser (METAR- och TAF-rapporter).

De tillgängliga stationerna syns som gula och röda prickar på kartan.

För musen över prickarna för att se namnen på stationerna.

Klicka sedan för att få väderrapporter och prognoser.

För att ändra kartan: Klicka på de gröna knapparna med ett svart kors på för att zooma in; den gröna knappen med ett streck på för att zooma ut; eller på de gröna pilarna för angränsande kartor.


METAR-TAF: